الصفحة الرئيسية
METAR-TAF:

METAR-TAF

مطار :

بنوم بنه, كمبوديا

دائرة عرض: 11-33N, خط طول: 104-51E, ارتفاع: 10 متر

مراقبة الطقس الحالي

تاريخ ووقت الإصدار 44 دقيقة قبل الساعة 07:30UTC
ريح 4 عقدة من الشمال/الشمال الشرقي
درجة الحرارة 30°درجة مئوية
الرطوبة 75%
ضغط 1007 hPa
الرؤية 10 كم أو أكثر
غيوم متفرقة على ارتفاع 1500 قدم
غيوم قليلة على ارتفاع 1700 قدم, مزنة ركامية.
غيوم متفرقة على ارتفاع 4000 قدم

METAR: VDPP 260730Z 03004KT 9999 SCT015 FEW017CB SCT040 30/25 Q1007 RMK:CB:NW:E

زمن: 15:14 (08:14 UTC)

توقعات

تاريخ ووقت الإصدار 3ساعات و 14 دقيقة قبل الساعة 05:00UTC
التوقعات صالحة من26 الساعة 06 UTC إلى 26 الساعة 24 UTC
ريح 9 عقدة من الجنوب/الجنوب الشرقي
الرؤية 10 كم أو أكثر
غيوم متفرقة على ارتفاع 1700 قدم
غيوم متفرقة على ارتفاع 4000 قدم
مؤقت
من 26 الساعة 07 UTC إلى 26 الساعة 12 UTC
الرؤية: 5000 متر
غيوم متفرقة على ارتفاع 1500 قدم
غيوم قليلة على ارتفاع 1700 قدم, مزنة ركامية.
غيوم متفرقة على ارتفاع 4000 قدم
عاصفة رعدية, مطر

TAF: VDPP 260500Z 2606/2624 16009KT 9999 SCT017 SCT040 TEMPO 2607/2612 5000 TSRA SCT015 FEW017CB SCT040

أرصاد الطقس والتوقعات من أكثر من 4000 مطار (تقارير الطقس للمطار METAR والتنبؤ بالطقس بالمطارTAF).

المحطات المتاحة هي النقط الصفراء والحمراء على الخريطة.

حرك المؤشر فوق النقطة لمعرفة اسم المحطة.

ثم انقر لمعرفة أرصاد وتوقعات الطقس.

لتغيير الخارطة: اضغط على الأزرار الخضراء مع رمز الصليب الأسود للتكبير. على الزر الأخضر مع شرطة للتصغير، أو على الأسهم الخضراء للخرائط المجاورة.


METAR-TAF: